createdAt,value
2023-02-06T00:04:32.149Z,-4.43
2023-02-06T00:09:37.463Z,-4.25
2023-02-06T00:14:41.698Z,-4.09
2023-02-06T00:19:45.824Z,-4.54
2023-02-06T00:24:51.978Z,-4.13
2023-02-06T00:29:55.936Z,-3.90
2023-02-06T00:35:00.204Z,-3.74
2023-02-06T00:40:06.356Z,-3.83
2023-02-06T00:45:11.261Z,-3.75
2023-02-06T00:50:15.830Z,-3.64
2023-02-06T00:55:22.206Z,-3.70
2023-02-06T01:00:26.190Z,-3.85
2023-02-06T01:05:30.548Z,-3.82
2023-02-06T01:10:36.184Z,-3.71
2023-02-06T01:15:40.409Z,-4.31
2023-02-06T01:20:44.374Z,-4.86
2023-02-06T01:25:50.948Z,-5.25
2023-02-06T01:30:55.049Z,-5.35
2023-02-06T01:36:00.788Z,-5.23
2023-02-06T01:41:08.856Z,-5.26
2023-02-06T01:46:13.220Z,-5.46
2023-02-06T01:51:26.101Z,-5.58
2023-02-06T01:56:35.912Z,-5.50
2023-02-06T02:01:39.678Z,-5.70
2023-02-06T02:06:43.667Z,-5.68
2023-02-06T02:11:49.095Z,-5.84
2023-02-06T02:17:07.803Z,-5.45
2023-02-06T02:22:39.492Z,-5.35
2023-02-06T02:28:07.306Z,-5.36
2023-02-06T02:33:53.880Z,-5.25
2023-02-06T02:39:08.978Z,-5.41
2023-02-06T02:44:22.648Z,-5.37
2023-02-06T02:49:30.435Z,-5.37
2023-02-06T02:54:36.682Z,-5.79
2023-02-06T02:59:46.083Z,-5.47
2023-02-06T03:04:55.007Z,-5.48
2023-02-06T03:10:12.605Z,-5.79
2023-02-06T03:15:26.269Z,-5.99
2023-02-06T03:20:33.106Z,-6.07
2023-02-06T03:25:42.992Z,-6.12
2023-02-06T03:30:51.301Z,-5.94
2023-02-06T03:35:58.115Z,-6.03
2023-02-06T03:41:05.974Z,-6.16
2023-02-06T03:46:12.955Z,-6.03
2023-02-06T03:51:21.471Z,-5.74
2023-02-06T03:56:31.459Z,-5.64
2023-02-06T04:01:35.707Z,-5.49
2023-02-06T04:06:39.660Z,-5.10
2023-02-06T04:11:44.956Z,-4.97
2023-02-06T04:16:49.113Z,-5.10
2023-02-06T04:21:54.774Z,-5.16
2023-02-06T04:27:01.528Z,-5.04
2023-02-06T04:32:06.760Z,-4.47
2023-02-06T04:37:12.445Z,-5.07
2023-02-06T04:42:17.799Z,-5.06
2023-02-06T04:47:21.764Z,-4.92
2023-02-06T04:52:25.771Z,-5.49
2023-02-06T04:57:31.084Z,-5.44
2023-02-06T05:02:39.969Z,-4.80
2023-02-06T05:07:44.026Z,-4.62
2023-02-06T05:12:50.950Z,-5.04
2023-02-06T05:17:55.782Z,-5.20
2023-02-06T05:22:59.852Z,-4.66
2023-02-06T05:28:07.619Z,-4.86
2023-02-06T05:33:12.871Z,-4.94
2023-02-06T05:38:17.623Z,-5.36
2023-02-06T05:43:23.027Z,-5.42
2023-02-06T05:48:29.095Z,-5.47
2023-02-06T05:53:33.032Z,-5.36
2023-02-06T05:58:38.368Z,-5.15
2023-02-06T06:03:42.568Z,-4.58
2023-02-06T06:08:46.632Z,-4.52
2023-02-06T06:13:52.365Z,-4.35
2023-02-06T06:18:57.003Z,-4.46
2023-02-06T06:24:01.037Z,-4.53
2023-02-06T06:29:07.221Z,-4.19
2023-02-06T06:34:11.463Z,-4.03
2023-02-06T06:39:15.808Z,-3.90
2023-02-06T06:44:22.414Z,-3.75
2023-02-06T06:49:28.780Z,-3.38
2023-02-06T06:54:33.201Z,-3.20
2023-02-06T06:59:38.750Z,-2.99
2023-02-06T07:04:43.446Z,-1.91
2023-02-06T07:09:48.473Z,-2.39
2023-02-06T07:14:55.400Z,-1.78
2023-02-06T07:19:59.851Z,-1.46
2023-02-06T07:25:03.799Z,-1.81
2023-02-06T07:30:13.573Z,-1.82
2023-02-06T07:35:17.732Z,-1.78
2023-02-06T07:40:22.252Z,-2.04
2023-02-06T07:45:27.745Z,-1.86
2023-02-06T07:50:32.089Z,-1.65
2023-02-06T07:55:38.369Z,-0.70
2023-02-06T08:00:45.868Z,-0.73
2023-02-06T08:05:50.682Z,-0.20
2023-02-06T08:10:55.027Z,0.17
2023-02-06T08:16:00.428Z,0.86
2023-02-06T08:21:05.039Z,0.38
2023-02-06T08:26:11.102Z,-0.02
2023-02-06T08:31:18.747Z,-0.68
2023-02-06T08:36:24.717Z,0.30
2023-02-06T08:41:31.147Z,0.70
2023-02-06T08:46:37.011Z,0.35
2023-02-06T08:51:41.753Z,0.15
2023-02-06T08:56:46.799Z,0.60
2023-02-06T09:01:52.617Z,0.52
2023-02-06T09:06:57.206Z,1.39
2023-02-06T09:12:04.059Z,1.46
2023-02-06T09:17:10.061Z,1.41
2023-02-06T09:22:14.985Z,1.91
2023-02-06T09:27:19.799Z,1.29
2023-02-06T09:32:25.285Z,1.64
2023-02-06T09:37:32.753Z,2.24
2023-02-06T09:42:40.127Z,2.81
2023-02-06T09:47:49.333Z,1.80
2023-02-06T09:53:06.759Z,2.60
2023-02-06T09:58:37.058Z,2.53
2023-02-06T10:04:13.078Z,4.96
2023-02-06T10:09:20.103Z,6.13
2023-02-06T10:14:37.817Z,6.56
2023-02-06T10:19:48.877Z,6.81
2023-02-06T10:25:04.742Z,6.10
2023-02-06T10:30:19.445Z,5.12
2023-02-06T10:35:36.485Z,5.00
2023-02-06T10:40:52.896Z,5.10
2023-02-06T10:46:12.345Z,5.61
2023-02-06T10:51:24.632Z,6.06
2023-02-06T10:56:32.118Z,4.82
2023-02-06T11:01:40.205Z,4.04
2023-02-06T11:06:47.103Z,3.78
2023-02-06T11:11:54.928Z,4.69
2023-02-06T11:17:00.124Z,5.40
2023-02-06T11:22:13.610Z,5.33
2023-02-06T11:27:21.164Z,4.60
2023-02-06T11:32:36.152Z,5.28
2023-02-06T11:37:43.288Z,4.84
2023-02-06T11:42:49.280Z,5.34
2023-02-06T11:47:53.499Z,5.74
2023-02-06T11:53:10.126Z,4.64
2023-02-06T11:58:26.594Z,5.73
2023-02-06T12:03:35.144Z,4.72
2023-02-06T12:08:48.451Z,4.48
2023-02-06T12:13:56.901Z,4.53
2023-02-06T12:19:02.296Z,4.92
2023-02-06T12:24:25.796Z,4.88
2023-02-06T12:29:35.950Z,5.27
2023-02-06T12:34:53.844Z,5.74
2023-02-06T12:40:40.102Z,4.89
2023-02-06T12:45:51.754Z,3.76
2023-02-06T12:51:08.084Z,4.70
2023-02-06T12:56:26.637Z,3.85
2023-02-06T13:01:54.551Z,4.15
2023-02-06T13:07:07.249Z,4.55
2023-02-06T13:12:25.461Z,3.89
2023-02-06T13:17:36.973Z,2.58
2023-02-06T13:22:45.027Z,2.70
2023-02-06T13:27:51.629Z,2.19
2023-02-06T13:32:58.552Z,1.05
2023-02-06T13:38:30.397Z,1.36
2023-02-06T13:43:37.835Z,1.08
2023-02-06T13:49:11.214Z,1.26
2023-02-06T13:54:56.604Z,1.50
2023-02-06T14:00:10.792Z,1.75
2023-02-06T14:05:20.115Z,1.27
2023-02-06T14:10:51.892Z,1.28
2023-02-06T14:16:10.438Z,1.79
2023-02-06T14:21:32.624Z,0.58
2023-02-06T14:26:50.181Z,0.61
2023-02-06T14:32:17.497Z,1.23
2023-02-06T14:37:44.713Z,0.72
2023-02-06T14:42:50.264Z,-0.13
2023-02-06T14:47:58.863Z,0.24
2023-02-06T14:53:06.796Z,0.51
2023-02-06T14:58:20.690Z,-0.08
2023-02-06T15:03:28.692Z,-0.31
2023-02-06T15:08:34.082Z,-0.53
2023-02-06T15:13:51.780Z,-1.01
2023-02-06T15:19:13.504Z,-1.15
2023-02-06T15:24:46.614Z,-1.37
2023-02-06T15:29:52.213Z,-1.49
2023-02-06T15:35:00.732Z,-1.80
2023-02-06T15:40:10.430Z,-2.00
2023-02-06T15:45:20.935Z,-2.57
2023-02-06T15:50:29.216Z,-2.64
2023-02-06T15:55:36.528Z,-2.89
2023-02-06T16:00:40.824Z,-3.27
2023-02-06T16:05:47.417Z,-3.61
2023-02-06T16:10:53.278Z,-3.81
2023-02-06T16:16:21.939Z,-3.72
2023-02-06T16:21:30.364Z,-3.55
2023-02-06T16:26:43.139Z,-3.71
2023-02-06T16:31:47.886Z,-3.49
2023-02-06T16:36:53.317Z,-3.28
2023-02-06T16:41:57.665Z,-3.19
2023-02-06T16:47:01.967Z,-3.21
2023-02-06T16:52:08.247Z,-3.33
2023-02-06T16:57:20.513Z,-3.44
2023-02-06T17:02:25.075Z,-3.56
2023-02-06T17:07:35.117Z,-3.43
2023-02-06T17:12:39.730Z,-3.44
2023-02-06T17:17:44.472Z,-3.47
2023-02-06T17:22:50.964Z,-3.55
2023-02-06T17:27:56.293Z,-3.66
2023-02-06T17:33:01.780Z,-3.49
2023-02-06T17:38:09.357Z,-3.20
2023-02-06T17:43:13.972Z,-3.35
2023-02-06T17:48:18.703Z,-3.67
2023-02-06T17:53:24.223Z,-3.83
2023-02-06T17:58:28.560Z,-3.82
2023-02-06T18:03:33.674Z,-3.81
2023-02-06T18:08:39.543Z,-3.55
2023-02-06T18:13:44.036Z,-3.58
2023-02-06T18:18:49.562Z,-3.65
2023-02-06T18:23:58.968Z,-3.40
2023-02-06T18:29:05.434Z,-3.46
2023-02-06T18:34:11.994Z,-3.82
2023-02-06T18:39:18.502Z,-4.09
2023-02-06T18:44:24.199Z,-4.18
2023-02-06T18:49:28.305Z,-3.90
2023-02-06T18:54:34.835Z,-3.96
2023-02-06T18:59:40.165Z,-4.04
2023-02-06T19:04:44.190Z,-3.76
2023-02-06T19:09:50.444Z,-3.78
2023-02-06T19:14:54.691Z,-3.84
2023-02-06T19:19:58.762Z,-3.82
2023-02-06T19:25:05.626Z,-4.09
2023-02-06T19:30:10.616Z,-3.94
2023-02-06T19:35:15.733Z,-3.87
2023-02-06T19:40:23.397Z,-4.19
2023-02-06T19:45:28.040Z,-4.28
2023-02-06T19:50:33.546Z,-4.28
2023-02-06T19:55:40.542Z,-4.25
2023-02-06T20:00:45.349Z,-4.21
2023-02-06T20:05:52.017Z,-4.11
2023-02-06T20:10:57.564Z,-3.95
2023-02-06T20:16:03.726Z,-4.05
2023-02-06T20:21:07.997Z,-4.23
2023-02-06T20:26:14.387Z,-4.11
2023-02-06T20:31:18.859Z,-4.16
2023-02-06T20:36:26.333Z,-4.20
2023-02-06T20:41:35.472Z,-4.23
2023-02-06T20:46:39.756Z,-4.22
2023-02-06T20:51:43.800Z,-4.07
2023-02-06T20:56:49.524Z,-4.04
2023-02-06T21:01:56.719Z,-4.03
2023-02-06T21:07:00.850Z,-3.97
2023-02-06T21:12:07.055Z,-4.02
2023-02-06T21:17:11.783Z,-4.37
2023-02-06T21:22:17.000Z,-4.51
2023-02-06T21:27:22.626Z,-4.40
2023-02-06T21:32:26.967Z,-4.44
2023-02-06T21:37:31.067Z,-4.46
2023-02-06T21:42:36.451Z,-4.46
2023-02-06T21:47:41.261Z,-4.35
2023-02-06T21:52:47.788Z,-4.35
2023-02-06T21:57:54.192Z,-4.21
2023-02-06T22:02:58.268Z,-4.03
2023-02-06T22:08:02.336Z,-4.00
2023-02-06T22:13:08.423Z,-4.05
2023-02-06T22:18:13.602Z,-3.93
2023-02-06T22:23:18.378Z,-3.75
2023-02-06T22:28:25.150Z,-3.71
2023-02-06T22:33:29.072Z,-3.62
2023-02-06T22:38:33.324Z,-3.40
2023-02-06T22:43:40.044Z,-3.28
2023-02-06T22:48:44.217Z,-3.10
2023-02-06T22:53:48.682Z,-3.22
2023-02-06T22:58:55.544Z,-3.16
2023-02-06T23:04:00.600Z,-3.26
2023-02-06T23:09:07.264Z,-3.52
2023-02-06T23:14:14.789Z,-3.38
2023-02-06T23:19:20.156Z,-3.36
2023-02-06T23:24:24.240Z,-3.31
2023-02-06T23:29:29.916Z,-3.43
2023-02-06T23:34:33.904Z,-3.42
2023-02-06T23:39:37.975Z,-3.53
2023-02-06T23:44:43.819Z,-3.68
2023-02-06T23:49:47.814Z,-3.84
2023-02-06T23:54:52.707Z,-3.72
2023-02-06T23:59:58.032Z,-4.02
